sensor_id;sensor_type;location;lat;lon;timestamp;pressure;altitude;pressure_sealevel;temperature;humidity
41703;BME280;861;48.808;9.006;2023-08-12T00:01:15;97409.53;;;22.56;74.03
41703;BME280;861;48.808;9.006;2023-08-12T00:03:43;97405.97;;;22.56;74.28
41703;BME280;861;48.808;9.006;2023-08-12T00:06:09;97404.13;;;22.53;74.69
41703;BME280;861;48.808;9.006;2023-08-12T00:08:36;97394.03;;;22.46;74.66
41703;BME280;861;48.808;9.006;2023-08-12T00:11:02;97389.38;;;22.43;75.16
41703;BME280;861;48.808;9.006;2023-08-12T00:13:29;97387.53;;;22.40;75.06
41703;BME280;861;48.808;9.006;2023-08-12T00:15:56;97386.69;;;22.31;75.42
41703;BME280;861;48.808;9.006;2023-08-12T00:18:23;97384.38;;;22.29;75.37
41703;BME280;861;48.808;9.006;2023-08-12T00:20:50;97390.22;;;22.31;75.61
41703;BME280;861;48.808;9.006;2023-08-12T00:23:17;97386.69;;;22.31;75.37
41703;BME280;861;48.808;9.006;2023-08-12T00:25:44;97375.16;;;22.32;75.09
41703;BME280;861;48.808;9.006;2023-08-12T00:28:11;97379.50;;;22.12;75.83
41703;BME280;861;48.808;9.006;2023-08-12T00:30:39;97374.38;;;21.89;76.81
41703;BME280;861;48.808;9.006;2023-08-12T00:33:05;97377.22;;;21.76;77.00
41703;BME280;861;48.808;9.006;2023-08-12T00:35:32;97372.66;;;22.04;76.16
41703;BME280;861;48.808;9.006;2023-08-12T00:37:58;97374.19;;;22.05;76.02
41703;BME280;861;48.808;9.006;2023-08-12T00:40:27;97370.06;;;22.09;75.69
41703;BME280;861;48.808;9.006;2023-08-12T00:42:53;97363.94;;;22.14;75.64
41703;BME280;861;48.808;9.006;2023-08-12T00:45:20;97362.84;;;22.12;75.99
41703;BME280;861;48.808;9.006;2023-08-12T00:47:47;97364.22;;;22.07;75.75
41703;BME280;861;48.808;9.006;2023-08-12T00:50:15;97358.28;;;21.96;76.27
41703;BME280;861;48.808;9.006;2023-08-12T00:52:42;97363.75;;;21.87;76.34
41703;BME280;861;48.808;9.006;2023-08-12T00:55:11;97364.19;;;21.86;76.74
41703;BME280;861;48.808;9.006;2023-08-12T00:57:38;97365.44;;;21.85;76.82
41703;BME280;861;48.808;9.006;2023-08-12T01:00:06;97355.25;;;21.82;76.77
41703;BME280;861;48.808;9.006;2023-08-12T01:02:34;97354.91;;;21.80;76.64
41703;BME280;861;48.808;9.006;2023-08-12T01:05:02;97357.56;;;21.83;76.44
41703;BME280;861;48.808;9.006;2023-08-12T01:07:28;97353.56;;;21.84;76.24
41703;BME280;861;48.808;9.006;2023-08-12T01:09:55;97355.72;;;21.80;76.44
41703;BME280;861;48.808;9.006;2023-08-12T01:12:41;97356.78;;;21.83;76.24
41703;BME280;861;48.808;9.006;2023-08-12T01:15:21;97349.59;;;21.85;76.41
41703;BME280;861;48.808;9.006;2023-08-12T01:17:52;97350.03;;;21.84;76.38
41703;BME280;861;48.808;9.006;2023-08-12T01:20:24;97348.75;;;21.76;76.68
41703;BME280;861;48.808;9.006;2023-08-12T01:25:42;97333.22;;;21.44;78.00
41703;BME280;861;48.808;9.006;2023-08-12T01:28:09;97324.91;;;21.44;78.01
41703;BME280;861;48.808;9.006;2023-08-12T01:31:05;97325.75;;;21.54;77.46
41703;BME280;861;48.808;9.006;2023-08-12T01:33:58;97323.72;;;21.67;77.34
41703;BME280;861;48.808;9.006;2023-08-12T01:36:37;97315.81;;;21.65;77.30
41703;BME280;861;48.808;9.006;2023-08-12T01:39:11;97326.28;;;21.61;77.19
41703;BME280;861;48.808;9.006;2023-08-12T01:41:38;97321.69;;;21.67;76.89
41703;BME280;861;48.808;9.006;2023-08-12T01:44:06;97319.81;;;21.64;76.84
41703;BME280;861;48.808;9.006;2023-08-12T01:46:33;97321.06;;;21.63;76.92
41703;BME280;861;48.808;9.006;2023-08-12T01:48:59;97319.66;;;21.59;77.63
41703;BME280;861;48.808;9.006;2023-08-12T01:51:26;97323.16;;;21.38;77.92
41703;BME280;861;48.808;9.006;2023-08-12T01:53:52;97328.38;;;21.36;78.40
41703;BME280;861;48.808;9.006;2023-08-12T01:56:19;97311.03;;;21.23;78.64
41703;BME280;861;48.808;9.006;2023-08-12T01:58:45;97314.38;;;21.17;79.12
41703;BME280;861;48.808;9.006;2023-08-12T02:01:12;97320.63;;;21.31;78.02
41703;BME280;861;48.808;9.006;2023-08-12T02:03:39;97314.13;;;21.24;78.59
41703;BME280;861;48.808;9.006;2023-08-12T02:06:05;97319.25;;;21.13;79.00
41703;BME280;861;48.808;9.006;2023-08-12T02:08:32;97316.84;;;21.03;79.70
41703;BME280;861;48.808;9.006;2023-08-12T02:10:58;97311.53;;;20.96;79.97
41703;BME280;861;48.808;9.006;2023-08-12T02:13:25;97311.59;;;21.17;78.67
41703;BME280;861;48.808;9.006;2023-08-12T02:15:51;97310.91;;;21.26;78.71
41703;BME280;861;48.808;9.006;2023-08-12T02:18:18;97319.22;;;21.26;78.93
41703;BME280;861;48.808;9.006;2023-08-12T02:20:46;97321.63;;;21.37;77.99
41703;BME280;861;48.808;9.006;2023-08-12T02:23:14;97315.13;;;21.52;77.94
41703;BME280;861;48.808;9.006;2023-08-12T02:25:40;97301.38;;;21.49;77.92
41703;BME280;861;48.808;9.006;2023-08-12T02:28:07;97314.34;;;21.52;77.90
41703;BME280;861;48.808;9.006;2023-08-12T02:30:33;97303.78;;;21.38;78.16
41703;BME280;861;48.808;9.006;2023-08-12T02:33:00;97308.16;;;21.48;78.29
41703;BME280;861;48.808;9.006;2023-08-12T02:35:27;97305.91;;;21.55;77.67
41703;BME280;861;48.808;9.006;2023-08-12T02:37:54;97300.81;;;21.54;77.61
41703;BME280;861;48.808;9.006;2023-08-12T02:40:20;97298.28;;;21.47;77.88
41703;BME280;861;48.808;9.006;2023-08-12T02:42:47;97301.22;;;21.31;78.51
41703;BME280;861;48.808;9.006;2023-08-12T02:45:13;97303.38;;;21.48;78.34
41703;BME280;861;48.808;9.006;2023-08-12T02:47:40;97305.69;;;21.50;77.84
41703;BME280;861;48.808;9.006;2023-08-12T02:50:07;97296.25;;;21.38;78.66
41703;BME280;861;48.808;9.006;2023-08-12T02:52:36;97287.97;;;21.47;78.07
41703;BME280;861;48.808;9.006;2023-08-12T02:55:02;97288.94;;;21.53;77.76
41703;BME280;861;48.808;9.006;2023-08-12T02:57:29;97285.72;;;21.33;78.46
41703;BME280;861;48.808;9.006;2023-08-12T02:59:56;97286.75;;;21.48;77.71
41703;BME280;861;48.808;9.006;2023-08-12T03:02:22;97285.34;;;21.44;77.98
41703;BME280;861;48.808;9.006;2023-08-12T03:04:49;97283.69;;;21.46;77.55
41703;BME280;861;48.808;9.006;2023-08-12T03:07:15;97280.13;;;21.24;78.75
41703;BME280;861;48.808;9.006;2023-08-12T03:09:42;97279.91;;;21.18;78.85
41703;BME280;861;48.808;9.006;2023-08-12T03:12:08;97281.31;;;21.01;79.54
41703;BME280;861;48.808;9.006;2023-08-12T03:14:35;97279.06;;;21.09;80.21
41703;BME280;861;48.808;9.006;2023-08-12T03:17:01;97274.00;;;20.82;80.80
41703;BME280;861;48.808;9.006;2023-08-12T03:19:28;97274.16;;;20.66;81.63
41703;BME280;861;48.808;9.006;2023-08-12T03:21:55;97276.78;;;20.82;81.35
41703;BME280;861;48.808;9.006;2023-08-12T03:24:22;97275.59;;;21.17;79.53
41703;BME280;861;48.808;9.006;2023-08-12T03:26:49;97277.13;;;21.18;79.83
41703;BME280;861;48.808;9.006;2023-08-12T03:29:15;97272.00;;;21.30;79.07
41703;BME280;861;48.808;9.006;2023-08-12T03:31:42;97274.31;;;21.31;79.12
41703;BME280;861;48.808;9.006;2023-08-12T03:34:08;97281.34;;;21.45;78.37
41703;BME280;861;48.808;9.006;2023-08-12T03:36:35;97282.84;;;21.37;78.81
41703;BME280;861;48.808;9.006;2023-08-12T03:39:01;97276.25;;;21.43;78.83
41703;BME280;861;48.808;9.006;2023-08-12T03:41:28;97275.28;;;21.37;78.98
41703;BME280;861;48.808;9.006;2023-08-12T03:43:55;97275.16;;;21.41;78.58
41703;BME280;861;48.808;9.006;2023-08-12T03:46:22;97274.25;;;21.22;79.01
41703;BME280;861;48.808;9.006;2023-08-12T03:48:48;97270.69;;;21.43;78.82
41703;BME280;861;48.808;9.006;2023-08-12T03:51:15;97272.44;;;21.28;79.36
41703;BME280;861;48.808;9.006;2023-08-12T03:53:42;97270.84;;;21.40;78.72
41703;BME280;861;48.808;9.006;2023-08-12T03:56:08;97278.19;;;21.34;79.15
41703;BME280;861;48.808;9.006;2023-08-12T03:58:35;97280.50;;;21.57;78.44
41703;BME280;861;48.808;9.006;2023-08-12T04:01:01;97280.19;;;21.33;79.60
41703;BME280;861;48.808;9.006;2023-08-12T04:03:28;97278.31;;;21.30;79.92
41703;BME280;861;48.808;9.006;2023-08-12T04:05:55;97280.31;;;21.30;79.58
41703;BME280;861;48.808;9.006;2023-08-12T04:08:23;97282.94;;;21.33;79.79
41703;BME280;861;48.808;9.006;2023-08-12T04:10:52;97283.34;;;21.44;79.08
41703;BME280;861;48.808;9.006;2023-08-12T04:13:19;97291.00;;;21.40;79.83
41703;BME280;861;48.808;9.006;2023-08-12T04:15:50;97295.84;;;21.49;79.40
41703;BME280;861;48.808;9.006;2023-08-12T04:18:19;97284.69;;;21.40;79.40
41703;BME280;861;48.808;9.006;2023-08-12T04:20:50;97285.91;;;21.39;79.65
41703;BME280;861;48.808;9.006;2023-08-12T04:23:18;97295.63;;;21.43;79.13
41703;BME280;861;48.808;9.006;2023-08-12T04:25:50;97294.38;;;21.35;79.55
41703;BME280;861;48.808;9.006;2023-08-12T04:28:18;97298.16;;;21.29;79.39
41703;BME280;861;48.808;9.006;2023-08-12T04:30:47;97295.13;;;21.36;79.76
41703;BME280;861;48.808;9.006;2023-08-12T04:33:17;97284.25;;;21.41;79.59
41703;BME280;861;48.808;9.006;2023-08-12T04:35:44;97274.63;;;21.55;79.11
41703;BME280;861;48.808;9.006;2023-08-12T04:38:10;97279.22;;;21.49;79.35
41703;BME280;861;48.808;9.006;2023-08-12T04:40:40;97295.78;;;21.40;80.03
41703;BME280;861;48.808;9.006;2023-08-12T04:43:11;97301.78;;;21.38;79.99
41703;BME280;861;48.808;9.006;2023-08-12T04:45:39;97299.41;;;21.49;79.90
41703;BME280;861;48.808;9.006;2023-08-12T04:48:07;97305.50;;;21.44;79.92
41703;BME280;861;48.808;9.006;2023-08-12T04:50:34;97302.88;;;21.41;80.11
41703;BME280;861;48.808;9.006;2023-08-12T04:53:01;97291.91;;;21.37;80.15
41703;BME280;861;48.808;9.006;2023-08-12T04:55:28;97296.94;;;21.30;80.92
41703;BME280;861;48.808;9.006;2023-08-12T04:57:55;97285.50;;;21.27;81.05
41703;BME280;861;48.808;9.006;2023-08-12T05:00:23;97278.09;;;21.24;80.84
41703;BME280;861;48.808;9.006;2023-08-12T05:02:50;97268.06;;;21.40;81.33
41703;BME280;861;48.808;9.006;2023-08-12T05:05:16;97263.63;;;21.42;81.33
41703;BME280;861;48.808;9.006;2023-08-12T05:07:43;97266.41;;;21.42;81.08
41703;BME280;861;48.808;9.006;2023-08-12T05:10:11;97279.09;;;21.52;80.55
41703;BME280;861;48.808;9.006;2023-08-12T05:12:37;97281.66;;;21.47;81.49
41703;BME280;861;48.808;9.006;2023-08-12T05:15:04;97289.00;;;21.62;81.18
41703;BME280;861;48.808;9.006;2023-08-12T05:17:31;97296.25;;;21.81;80.27
41703;BME280;861;48.808;9.006;2023-08-12T05:19:58;97292.75;;;21.68;80.33
41703;BME280;861;48.808;9.006;2023-08-12T05:22:25;97292.22;;;21.61;80.74
41703;BME280;861;48.808;9.006;2023-08-12T05:24:51;97287.06;;;21.72;79.88
41703;BME280;861;48.808;9.006;2023-08-12T05:27:18;97291.47;;;21.60;80.54
41703;BME280;861;48.808;9.006;2023-08-12T05:29:44;97287.59;;;21.58;80.55
41703;BME280;861;48.808;9.006;2023-08-12T05:32:11;97285.03;;;21.63;81.06
41703;BME280;861;48.808;9.006;2023-08-12T05:34:37;97265.66;;;21.72;81.35
41703;BME280;861;48.808;9.006;2023-08-12T05:37:04;97274.06;;;21.81;81.50
41703;BME280;861;48.808;9.006;2023-08-12T05:39:31;97278.81;;;21.59;82.28
41703;BME280;861;48.808;9.006;2023-08-12T05:41:57;97277.41;;;21.55;83.00
41703;BME280;861;48.808;9.006;2023-08-12T05:44:24;97285.84;;;21.51;83.23
41703;BME280;861;48.808;9.006;2023-08-12T05:46:50;97287.41;;;21.52;83.04
41703;BME280;861;48.808;9.006;2023-08-12T05:49:17;97281.34;;;21.45;84.21
41703;BME280;861;48.808;9.006;2023-08-12T05:51:43;97293.97;;;21.46;83.11
41703;BME280;861;48.808;9.006;2023-08-12T05:54:10;97304.09;;;21.61;83.04
41703;BME280;861;48.808;9.006;2023-08-12T05:56:36;97296.53;;;21.40;84.16
41703;BME280;861;48.808;9.006;2023-08-12T05:59:03;97280.34;;;21.17;86.45
41703;BME280;861;48.808;9.006;2023-08-12T06:01:30;97277.59;;;21.39;84.67
41703;BME280;861;48.808;9.006;2023-08-12T06:03:56;97278.03;;;21.37;85.04
41703;BME280;861;48.808;9.006;2023-08-12T06:06:23;97278.63;;;21.32;85.25
41703;BME280;861;48.808;9.006;2023-08-12T06:08:49;97276.06;;;21.38;85.68
41703;BME280;861;48.808;9.006;2023-08-12T06:11:16;97267.63;;;21.41;85.50
41703;BME280;861;48.808;9.006;2023-08-12T06:13:42;97259.38;;;21.50;86.00
41703;BME280;861;48.808;9.006;2023-08-12T06:16:09;97253.56;;;21.57;85.73
41703;BME280;861;48.808;9.006;2023-08-12T06:18:36;97263.75;;;21.60;85.64
41703;BME280;861;48.808;9.006;2023-08-12T06:21:02;97267.28;;;21.61;86.19
41703;BME280;861;48.808;9.006;2023-08-12T06:23:29;97265.22;;;21.74;85.02
41703;BME280;861;48.808;9.006;2023-08-12T06:25:56;97268.25;;;21.88;84.21
41703;BME280;861;48.808;9.006;2023-08-12T06:28:23;97264.44;;;21.95;84.33
41703;BME280;861;48.808;9.006;2023-08-12T06:30:50;97275.59;;;22.04;84.65
41703;BME280;861;48.808;9.006;2023-08-12T06:33:16;97274.22;;;22.08;84.45
41703;BME280;861;48.808;9.006;2023-08-12T06:35:43;97274.56;;;22.19;84.54
41703;BME280;861;48.808;9.006;2023-08-12T06:38:10;97278.13;;;22.20;84.75
41703;BME280;861;48.808;9.006;2023-08-12T06:40:39;97272.63;;;22.38;84.09
41703;BME280;861;48.808;9.006;2023-08-12T06:43:05;97273.66;;;22.62;83.05
41703;BME280;861;48.808;9.006;2023-08-12T06:45:34;97269.50;;;22.57;83.40
41703;BME280;861;48.808;9.006;2023-08-12T06:48:00;97270.72;;;22.56;83.51
41703;BME280;861;48.808;9.006;2023-08-12T06:50:28;97275.66;;;22.61;83.16
41703;BME280;861;48.808;9.006;2023-08-12T06:52:55;97275.53;;;22.65;82.91
41703;BME280;861;48.808;9.006;2023-08-12T06:55:21;97277.91;;;22.94;82.12
41703;BME280;861;48.808;9.006;2023-08-12T06:57:48;97270.03;;;23.10;81.65
41703;BME280;861;48.808;9.006;2023-08-12T07:00:15;97281.78;;;23.23;80.40
41703;BME280;861;48.808;9.006;2023-08-12T07:02:41;97275.94;;;23.39;80.00
41703;BME280;861;48.808;9.006;2023-08-12T07:05:09;97272.38;;;23.30;80.23
41703;BME280;861;48.808;9.006;2023-08-12T07:07:36;97277.78;;;23.24;80.29
41703;BME280;861;48.808;9.006;2023-08-12T07:10:03;97280.13;;;23.26;80.06
41703;BME280;861;48.808;9.006;2023-08-12T07:12:30;97274.84;;;23.28;80.83
41703;BME280;861;48.808;9.006;2023-08-12T07:14:57;97279.00;;;23.32;80.64
41703;BME280;861;48.808;9.006;2023-08-12T07:17:24;97272.84;;;23.46;80.16
41703;BME280;861;48.808;9.006;2023-08-12T07:19:50;97274.06;;;23.63;79.08
41703;BME280;861;48.808;9.006;2023-08-12T07:22:17;97282.38;;;23.81;78.89
41703;BME280;861;48.808;9.006;2023-08-12T07:24:46;97280.28;;;24.18;75.97
41703;BME280;861;48.808;9.006;2023-08-12T07:27:12;97280.44;;;24.14;77.20
41703;BME280;861;48.808;9.006;2023-08-12T07:29:39;97276.41;;;24.25;76.40
41703;BME280;861;48.808;9.006;2023-08-12T07:32:05;97275.13;;;24.35;76.74
41703;BME280;861;48.808;9.006;2023-08-12T07:34:32;97277.25;;;24.40;76.06
41703;BME280;861;48.808;9.006;2023-08-12T07:36:58;97280.78;;;24.49;75.70
41703;BME280;861;48.808;9.006;2023-08-12T07:39:26;97285.50;;;24.67;74.68
41703;BME280;861;48.808;9.006;2023-08-12T07:41:53;97280.38;;;24.65;75.04
41703;BME280;861;48.808;9.006;2023-08-12T07:44:19;97272.47;;;24.96;72.39
41703;BME280;861;48.808;9.006;2023-08-12T07:46:46;97269.75;;;24.87;73.03
41703;BME280;861;48.808;9.006;2023-08-12T07:49:12;97270.22;;;24.86;72.73
41703;BME280;861;48.808;9.006;2023-08-12T07:51:39;97270.63;;;24.93;72.50
41703;BME280;861;48.808;9.006;2023-08-12T07:54:06;97274.25;;;25.08;71.41
41703;BME280;861;48.808;9.006;2023-08-12T07:56:32;97269.31;;;25.27;71.29
41703;BME280;861;48.808;9.006;2023-08-12T07:58:59;97270.72;;;25.46;69.43
41703;BME280;861;48.808;9.006;2023-08-12T08:01:26;97271.69;;;25.43;70.36
41703;BME280;861;48.808;9.006;2023-08-12T08:03:52;97259.75;;;25.42;69.54
41703;BME280;861;48.808;9.006;2023-08-12T08:06:19;97267.97;;;25.61;70.63
41703;BME280;861;48.808;9.006;2023-08-12T08:08:45;97264.81;;;25.82;70.96
41703;BME280;861;48.808;9.006;2023-08-12T08:11:12;97265.38;;;25.86;70.51
41703;BME280;861;48.808;9.006;2023-08-12T08:13:38;97257.28;;;25.74;69.64
41703;BME280;861;48.808;9.006;2023-08-12T08:16:05;97259.03;;;25.86;69.84
41703;BME280;861;48.808;9.006;2023-08-12T08:18:31;97263.19;;;26.05;67.84
41703;BME280;861;48.808;9.006;2023-08-12T08:20:58;97264.59;;;26.29;67.51
41703;BME280;861;48.808;9.006;2023-08-12T08:23:25;97269.81;;;26.36;68.64
41703;BME280;861;48.808;9.006;2023-08-12T08:25:51;97264.28;;;26.42;67.51
41703;BME280;861;48.808;9.006;2023-08-12T08:28:18;97258.38;;;26.54;67.84
41703;BME280;861;48.808;9.006;2023-08-12T08:30:45;97259.34;;;26.66;68.14
41703;BME280;861;48.808;9.006;2023-08-12T08:33:11;97256.50;;;26.80;68.00
41703;BME280;861;48.808;9.006;2023-08-12T08:35:38;97258.88;;;26.87;66.75
41703;BME280;861;48.808;9.006;2023-08-12T08:38:04;97261.81;;;26.98;66.67
41703;BME280;861;48.808;9.006;2023-08-12T08:40:31;97255.53;;;27.03;65.09
41703;BME280;861;48.808;9.006;2023-08-12T08:43:04;97267.16;;;27.17;64.96
41703;BME280;861;48.808;9.006;2023-08-12T08:45:34;97262.47;;;27.28;64.82
41703;BME280;861;48.808;9.006;2023-08-12T08:48:03;97264.91;;;27.41;64.16
41703;BME280;861;48.808;9.006;2023-08-12T08:50:33;97256.28;;;27.44;63.48
41703;BME280;861;48.808;9.006;2023-08-12T08:53:02;97255.88;;;27.51;65.70
41703;BME280;861;48.808;9.006;2023-08-12T08:55:33;97246.22;;;27.78;61.90
41703;BME280;861;48.808;9.006;2023-08-12T08:57:59;97252.22;;;27.91;63.25
41703;BME280;861;48.808;9.006;2023-08-12T09:00:28;97252.66;;;28.09;63.09
41703;BME280;861;48.808;9.006;2023-08-12T09:02:58;97248.44;;;28.25;62.45
41703;BME280;861;48.808;9.006;2023-08-12T09:05:26;97258.66;;;28.33;61.85
41703;BME280;861;48.808;9.006;2023-08-12T09:07:57;97258.84;;;28.50;61.23
41703;BME280;861;48.808;9.006;2023-08-12T09:10:27;97259.13;;;28.58;61.15
41703;BME280;861;48.808;9.006;2023-08-12T09:12:56;97258.19;;;28.72;60.97
41703;BME280;861;48.808;9.006;2023-08-12T09:15:23;97256.25;;;28.89;62.08
41703;BME280;861;48.808;9.006;2023-08-12T09:17:50;97260.97;;;29.08;58.66
41703;BME280;861;48.808;9.006;2023-08-12T09:20:16;97256.19;;;29.20;58.58
41703;BME280;861;48.808;9.006;2023-08-12T09:22:43;97263.09;;;29.30;57.51
41703;BME280;861;48.808;9.006;2023-08-12T09:25:11;97253.97;;;29.46;57.30
41703;BME280;861;48.808;9.006;2023-08-12T09:27:37;97249.88;;;29.47;57.80
41703;BME280;861;48.808;9.006;2023-08-12T09:30:06;97256.84;;;29.62;57.11
41703;BME280;861;48.808;9.006;2023-08-12T09:32:34;97252.78;;;29.80;56.70
41703;BME280;861;48.808;9.006;2023-08-12T09:35:01;97245.41;;;29.99;56.30
41703;BME280;861;48.808;9.006;2023-08-12T09:37:29;97245.69;;;30.18;55.82
41703;BME280;861;48.808;9.006;2023-08-12T09:39:57;97246.69;;;30.15;56.84
41703;BME280;861;48.808;9.006;2023-08-12T09:42:24;97227.81;;;29.99;57.44
41703;BME280;861;48.808;9.006;2023-08-12T09:44:51;97217.06;;;29.92;56.48
41703;BME280;861;48.808;9.006;2023-08-12T09:47:17;97214.50;;;29.71;55.10
41703;BME280;861;48.808;9.006;2023-08-12T09:49:45;97212.63;;;29.41;57.18
41703;BME280;861;48.808;9.006;2023-08-12T09:52:12;97220.00;;;29.33;58.02
41703;BME280;861;48.808;9.006;2023-08-12T09:54:39;97212.28;;;29.11;59.18
41703;BME280;861;48.808;9.006;2023-08-12T09:57:11;97213.50;;;29.05;57.13
41703;BME280;861;48.808;9.006;2023-08-12T09:59:44;97223.44;;;29.00;56.42
41703;BME280;861;48.808;9.006;2023-08-12T10:02:15;97217.00;;;28.89;58.13
41703;BME280;861;48.808;9.006;2023-08-12T10:04:51;97216.59;;;29.07;56.29
41703;BME280;861;48.808;9.006;2023-08-12T10:07:24;97212.03;;;29.15;56.66
41703;BME280;861;48.808;9.006;2023-08-12T10:09:51;97209.41;;;28.95;56.01
41703;BME280;861;48.808;9.006;2023-08-12T10:12:21;97209.75;;;29.19;55.68
41703;BME280;861;48.808;9.006;2023-08-12T10:14:48;97208.47;;;29.09;58.17
41703;BME280;861;48.808;9.006;2023-08-12T10:17:16;97204.34;;;29.04;57.58
41703;BME280;861;48.808;9.006;2023-08-12T10:19:45;97202.84;;;29.14;58.48
41703;BME280;861;48.808;9.006;2023-08-12T10:22:14;97207.50;;;29.23;57.93
41703;BME280;861;48.808;9.006;2023-08-12T10:24:43;97209.53;;;29.28;57.39
41703;BME280;861;48.808;9.006;2023-08-12T10:27:14;97215.91;;;29.28;58.60
41703;BME280;861;48.808;9.006;2023-08-12T10:29:43;97212.34;;;29.28;59.24
41703;BME280;861;48.808;9.006;2023-08-12T10:32:10;97210.34;;;29.45;56.86
41703;BME280;861;48.808;9.006;2023-08-12T10:34:38;97212.41;;;29.55;56.08
41703;BME280;861;48.808;9.006;2023-08-12T10:37:05;97209.63;;;29.61;57.92
41703;BME280;861;48.808;9.006;2023-08-12T10:39:34;97207.81;;;29.52;57.01
41703;BME280;861;48.808;9.006;2023-08-12T10:42:01;97213.69;;;29.60;56.40
41703;BME280;861;48.808;9.006;2023-08-12T10:44:49;97214.50;;;29.71;56.68
41703;BME280;861;48.808;9.006;2023-08-12T10:47:18;97210.16;;;29.92;53.14
41703;BME280;861;48.808;9.006;2023-08-12T10:49:49;97204.81;;;29.78;54.50
41703;BME280;861;48.808;9.006;2023-08-12T10:52:31;97202.50;;;30.37;53.67
41703;BME280;861;48.808;9.006;2023-08-12T10:55:22;97200.34;;;30.93;52.44
41703;BME280;861;48.808;9.006;2023-08-12T10:57:55;97205.97;;;30.93;54.02
41703;BME280;861;48.808;9.006;2023-08-12T11:00:27;97205.84;;;31.20;52.73
41703;BME280;861;48.808;9.006;2023-08-12T11:02:57;97205.16;;;31.55;49.26
41703;BME280;861;48.808;9.006;2023-08-12T11:05:36;97201.09;;;31.51;49.50
41703;BME280;861;48.808;9.006;2023-08-12T11:08:06;97203.03;;;31.26;50.77
41703;BME280;861;48.808;9.006;2023-08-12T11:10:35;97199.81;;;31.00;51.02
41703;BME280;861;48.808;9.006;2023-08-12T11:13:03;97202.69;;;30.72;50.87
41703;BME280;861;48.808;9.006;2023-08-12T11:15:44;97189.19;;;30.60;50.83
41703;BME280;861;48.808;9.006;2023-08-12T11:18:20;97176.22;;;30.24;51.83
41703;BME280;861;48.808;9.006;2023-08-12T11:20:50;97179.28;;;29.98;52.38
41703;BME280;861;48.808;9.006;2023-08-12T11:23:18;97167.03;;;29.90;52.85
41703;BME280;861;48.808;9.006;2023-08-12T11:25:47;97162.66;;;30.44;51.15
41703;BME280;861;48.808;9.006;2023-08-12T11:28:18;97157.63;;;30.94;50.67
41703;BME280;861;48.808;9.006;2023-08-12T11:30:46;97157.22;;;31.31;50.33
41703;BME280;861;48.808;9.006;2023-08-12T11:33:15;97159.56;;;31.62;50.57
41703;BME280;861;48.808;9.006;2023-08-12T11:35:44;97160.00;;;32.07;49.87
41703;BME280;861;48.808;9.006;2023-08-12T11:38:12;97159.34;;;32.49;47.36
41703;BME280;861;48.808;9.006;2023-08-12T11:40:38;97157.91;;;32.13;49.57
41703;BME280;861;48.808;9.006;2023-08-12T11:43:07;97158.47;;;31.71;50.91
41703;BME280;861;48.808;9.006;2023-08-12T11:45:33;97170.72;;;31.44;54.16
41703;BME280;861;48.808;9.006;2023-08-12T11:48:00;97184.28;;;31.40;55.10
41703;BME280;861;48.808;9.006;2023-08-12T11:50:28;97185.41;;;31.20;59.28
41703;BME280;861;48.808;9.006;2023-08-12T11:52:56;97205.28;;;30.65;63.45
41703;BME280;861;48.808;9.006;2023-08-12T11:55:24;97209.13;;;29.68;66.27
41703;BME280;861;48.808;9.006;2023-08-12T11:57:52;97238.63;;;29.36;68.24
41703;BME280;861;48.808;9.006;2023-08-12T12:00:19;97255.66;;;29.16;66.83
41703;BME280;861;48.808;9.006;2023-08-12T12:02:55;97255.91;;;28.70;68.30
41703;BME280;861;48.808;9.006;2023-08-12T12:05:30;97259.75;;;28.05;71.95
41703;BME280;861;48.808;9.006;2023-08-12T12:07:58;97267.34;;;27.79;73.12
41703;BME280;861;48.808;9.006;2023-08-12T12:10:32;97287.28;;;27.41;74.51
41703;BME280;861;48.808;9.006;2023-08-12T12:13:01;97301.22;;;27.35;72.83
41703;BME280;861;48.808;9.006;2023-08-12T12:15:31;97326.28;;;27.10;75.55
41703;BME280;861;48.808;9.006;2023-08-12T12:17:59;97320.47;;;26.93;76.22
41703;BME280;861;48.808;9.006;2023-08-12T12:20:26;97309.81;;;26.62;78.01
41703;BME280;861;48.808;9.006;2023-08-12T12:22:55;97342.00;;;26.58;78.79
41703;BME280;861;48.808;9.006;2023-08-12T12:25:22;97327.50;;;26.39;79.65
41703;BME280;861;48.808;9.006;2023-08-12T12:27:49;97327.75;;;26.56;77.52
41703;BME280;861;48.808;9.006;2023-08-12T12:30:17;97315.50;;;26.68;78.52
41703;BME280;861;48.808;9.006;2023-08-12T12:32:44;97318.69;;;26.61;79.62
41703;BME280;861;48.808;9.006;2023-08-12T12:35:11;97320.63;;;26.55;80.18
41703;BME280;861;48.808;9.006;2023-08-12T12:37:38;97300.00;;;26.52;81.03
41703;BME280;861;48.808;9.006;2023-08-12T12:40:06;97306.25;;;26.62;81.68
41703;BME280;861;48.808;9.006;2023-08-12T12:42:33;97301.25;;;26.66;81.21
41703;BME280;861;48.808;9.006;2023-08-12T12:45:00;97301.13;;;26.60;81.72
41703;BME280;861;48.808;9.006;2023-08-12T12:47:26;97306.91;;;26.57;81.66
41703;BME280;861;48.808;9.006;2023-08-12T12:49:53;97332.56;;;26.55;81.16
41703;BME280;861;48.808;9.006;2023-08-12T12:52:19;97331.38;;;26.62;82.25
41703;BME280;861;48.808;9.006;2023-08-12T12:54:46;97333.25;;;26.65;82.77
41703;BME280;861;48.808;9.006;2023-08-12T12:57:12;97320.41;;;26.73;81.19
41703;BME280;861;48.808;9.006;2023-08-12T12:59:39;97325.16;;;26.67;81.66
41703;BME280;861;48.808;9.006;2023-08-12T13:02:05;97321.25;;;26.79;80.02
41703;BME280;861;48.808;9.006;2023-08-12T13:04:32;97318.94;;;26.77;81.07
41703;BME280;861;48.808;9.006;2023-08-12T13:06:59;97318.94;;;26.77;80.94
41703;BME280;861;48.808;9.006;2023-08-12T13:09:25;97321.47;;;26.61;82.04
41703;BME280;861;48.808;9.006;2023-08-12T13:11:52;97328.53;;;26.71;81.29
41703;BME280;861;48.808;9.006;2023-08-12T13:14:19;97322.94;;;26.71;81.75
41703;BME280;861;48.808;9.006;2023-08-12T13:16:47;97331.09;;;26.74;81.77
41703;BME280;861;48.808;9.006;2023-08-12T13:19:13;97335.44;;;26.75;83.13
41703;BME280;861;48.808;9.006;2023-08-12T13:21:40;97333.03;;;26.68;84.22
41703;BME280;861;48.808;9.006;2023-08-12T13:24:07;97338.06;;;26.64;84.94
41703;BME280;861;48.808;9.006;2023-08-12T13:26:33;97334.97;;;26.62;85.30
41703;BME280;861;48.808;9.006;2023-08-12T13:29:00;97328.03;;;26.58;85.28